Time;durP1;ratioP1;P1;durP2;ratioP2;P2;SDS_P1;SDS_P2;PMS_P1;PMS_P2;Temp;Humidity;BMP_temperature;BMP_pressure;BME280_temperature;BME280_humidity;BME280_pressure;Samples;Min_cycle;Max_cycle;Signal;HPM_P1;HPM_P2
2021/12/04 00:04:40;;;;;;;10.45;5.10;;;7.20;98.50;;;;;;10487344;28;20064;-66
2021/12/04 00:09:45;;;;;;;9.38;5.55;;;7.20;98.80;;;;;;10491366;28;20432;-69
2021/12/04 00:14:46;;;;;;;11.20;5.88;;;7.30;98.80;;;;;;10489494;28;20045;-70
2021/12/04 00:19:47;;;;;;;10.60;5.50;;;7.20;98.50;;;;;;10489541;28;20037;-68
2021/12/04 00:24:48;;;;;;;9.73;5.22;;;7.30;98.60;;;;;;10485127;28;20071;-69
2021/12/04 00:29:48;;;;;;;10.93;5.97;;;7.30;98.60;;;;;;10494019;28;20044;-69
2021/12/04 00:34:55;;;;;;;9.88;5.75;;;7.30;98.50;;;;;;10477947;28;20558;-70
2021/12/04 00:50:35;;;;;;;9.50;4.80;;;7.30;98.50;;;;;;10472009;28;20055;-69
2021/12/04 00:55:35;;;;;;;10.07;6.00;;;7.30;98.50;;;;;;10489935;28;20312;-70
2021/12/04 01:00:36;;;;;;;9.90;5.75;;;7.50;98.60;;;;;;10490240;28;20028;-70
2021/12/04 01:05:37;;;;;;;7.78;5.03;;;7.30;98.50;;;;;;10477875;28;20119;-69
2021/12/04 01:10:37;;;;;;;9.45;5.57;;;7.60;98.60;;;;;;10487118;28;20035;-70
2021/12/04 01:15:40;;;;;;;9.52;4.95;;;7.30;98.50;;;;;;10487006;28;20073;-69
2021/12/04 01:20:41;;;;;;;8.50;5.10;;;7.30;98.60;;;;;;10489406;28;20037;-69
2021/12/04 01:25:42;;;;;;;7.57;4.65;;;7.30;98.50;;;;;;10483594;28;20029;-69
2021/12/04 01:30:43;;;;;;;8.55;4.93;;;7.30;98.60;;;;;;10468841;28;20028;-70
2021/12/04 01:35:44;;;;;;;6.57;4.40;;;7.30;98.50;;;;;;10475431;28;20037;-69
2021/12/04 01:40:45;;;;;;;5.78;3.88;;;7.90;98.70;;;;;;10482770;28;20040;-69
2021/12/04 01:45:46;;;;;;;6.32;4.25;;;7.30;98.60;;;;;;10487625;28;20048;-70
2021/12/04 01:50:46;;;;;;;7.20;4.57;;;7.30;98.60;;;;;;10486110;28;20103;-69
2021/12/04 01:55:51;;;;;;;8.77;4.32;;;7.30;98.60;;;;;;10492153;28;20372;-67
2021/12/04 02:00:52;;;;;;;6.90;4.15;;;7.30;98.60;;;;;;10469768;28;20013;-70
2021/12/04 02:05:52;;;;;;;6.47;3.70;;;7.30;98.60;;;;;;10473905;28;20398;-69
2021/12/04 02:10:57;;;;;;;7.85;4.80;;;7.30;98.60;;;;;;10486258;28;20043;-69
2021/12/04 02:16:02;;;;;;;6.35;4.00;;;7.30;98.60;;;;;;10485764;28;20474;-70
2021/12/04 02:21:03;;;;;;;7.05;3.83;;;7.30;98.60;;;;;;10486792;28;20028;-70
2021/12/04 02:26:04;;;;;;;6.38;3.90;;;7.20;98.60;;;;;;10466193;28;20051;-67
2021/12/04 02:31:05;;;;;;;6.25;3.78;;;7.20;98.60;;;;;;10488810;28;20024;-70
2021/12/04 02:36:07;;;;;;;6.07;3.90;;;7.20;98.60;;;;;;10473450;28;20154;-70
2021/12/04 02:41:09;;;;;;;5.18;3.42;;;7.20;98.60;;;;;;10480953;28;20039;-70
2021/12/04 02:46:10;;;;;;;5.30;3.47;;;7.20;98.60;;;;;;10482588;28;20064;-70
2021/12/04 02:51:14;;;;;;;5.25;3.63;;;7.20;98.60;;;;;;10481848;28;20029;-69
2021/12/04 02:56:15;;;;;;;5.28;3.72;;;7.30;98.60;;;;;;10484342;28;20074;-69
2021/12/04 03:01:15;;;;;;;6.55;4.00;;;7.40;98.60;;;;;;10483490;28;20017;-70
2021/12/04 03:06:16;;;;;;;5.43;3.20;;;7.20;98.60;;;;;;10471955;28;20375;-69
2021/12/04 03:11:17;;;;;;;5.45;3.60;;;7.30;98.60;;;;;;10488934;28;20029;-70
2021/12/04 03:16:18;;;;;;;5.38;3.85;;;7.30;98.60;;;;;;10482401;28;20035;-69
2021/12/04 03:21:19;;;;;;;4.43;3.30;;;7.20;98.60;;;;;;10493743;28;20028;-69
2021/12/04 03:26:21;;;;;;;5.03;3.30;;;7.20;98.60;;;;;;10485034;28;20093;-69
2021/12/04 03:41:47;;;;;;;5.70;3.30;;;7.30;98.60;;;;;;10487714;28;20024;-70
2021/12/04 03:46:48;;;;;;;5.50;3.13;;;7.30;98.60;;;;;;10488865;28;20079;-69
2021/12/04 03:51:49;;;;;;;4.35;3.30;;;7.20;98.60;;;;;;10490298;28;20032;-69
2021/12/04 03:57:00;;;;;;;4.90;3.10;;;7.30;98.60;;;;;;10490846;28;20044;-68
2021/12/04 04:02:03;;;;;;;4.18;2.90;;;7.30;98.60;;;;;;10493197;28;20051;-70
2021/12/04 04:07:04;;;;;;;4.72;2.95;;;7.30;98.60;;;;;;10478722;28;20052;-70
2021/12/04 04:12:05;;;;;;;5.28;3.25;;;7.30;98.60;;;;;;10490222;28;20044;-69
2021/12/04 04:17:06;;;;;;;4.30;2.78;;;7.30;98.60;;;;;;10490762;28;20378;-70
2021/12/04 04:22:07;;;;;;;3.33;2.50;;;7.30;98.60;;;;;;10487166;28;20029;-69
2021/12/04 04:27:08;;;;;;;3.95;2.58;;;7.30;98.60;;;;;;10483955;28;20178;-70
2021/12/04 04:32:09;;;;;;;3.72;2.80;;;7.30;98.60;;;;;;10489147;28;20082;-70
2021/12/04 04:58:43;;;;;;;4.45;3.00;;;7.30;98.60;;;;;;10487557;28;20101;-70
2021/12/04 05:14:22;;;;;;;3.95;2.83;;;7.40;98.70;;;;;;10487853;28;19904;-69
2021/12/04 05:19:27;;;;;;;4.05;2.70;;;7.30;98.60;;;;;;10488939;28;20046;-69
2021/12/04 05:24:28;;;;;;;4.30;2.85;;;7.30;98.60;;;;;;10482061;28;20029;-70
2021/12/04 05:29:28;;;;;;;4.80;3.05;;;7.30;98.60;;;;;;10489736;28;20020;-69
2021/12/04 05:34:30;;;;;;;4.43;2.70;;;7.30;98.60;;;;;;10459540;28;20347;-69
2021/12/04 05:39:30;;;;;;;4.45;3.05;;;7.30;98.60;;;;;;10483344;28;20021;-69
2021/12/04 05:44:32;;;;;;;4.97;3.08;;;7.30;98.60;;;;;;10487863;28;20028;-69
2021/12/04 05:49:51;;;;;;;5.13;3.03;;;7.30;98.60;;;;;;10462407;28;20099;-69
2021/12/04 05:55:14;;;;;;;5.10;2.93;;;7.30;98.60;;;;;;10486130;28;20040;-70
2021/12/04 06:00:18;;;;;;;4.28;2.80;;;7.30;98.60;;;;;;10472778;28;20031;-70
2021/12/04 06:05:19;;;;;;;4.35;2.65;;;7.30;98.60;;;;;;10474196;28;20063;-69
2021/12/04 06:10:20;;;;;;;5.82;3.05;;;7.30;98.60;;;;;;10485841;28;20124;-71
2021/12/04 06:15:21;;;;;;;5.88;3.60;;;7.30;98.60;;;;;;10485322;28;20035;-69
2021/12/04 06:25:42;;;;;;;5.68;3.30;;;7.30;98.60;;;;;;10478420;28;20083;-70
2021/12/04 06:30:43;;;;;;;7.18;3.45;;;7.30;98.60;;;;;;10468603;28;20112;-67
2021/12/04 06:35:46;;;;;;;5.20;3.00;;;7.30;98.60;;;;;;10473022;28;20020;-69
2021/12/04 06:40:48;;;;;;;6.40;3.47;;;7.30;98.60;;;;;;10481049;28;20100;-66
2021/12/04 06:46:00;;;;;;;7.25;3.50;;;7.30;98.60;;;;;;10488207;28;20091;-69
2021/12/04 06:51:06;;;;;;;5.82;3.65;;;7.30;98.60;;;;;;10490443;28;20037;-69
2021/12/04 06:56:10;;;;;;;6.38;3.40;;;7.30;98.70;;;;;;10476019;28;20055;-69
2021/12/04 07:01:11;;;;;;;6.88;3.58;;;7.30;98.70;;;;;;10492696;28;20197;-70
2021/12/04 07:06:11;;;;;;;7.38;3.92;;;7.30;98.70;;;;;;10480540;28;20127;-69
2021/12/04 07:11:12;;;;;;;6.50;3.40;;;7.30;98.70;;;;;;10491916;28;20052;-69
2021/12/04 07:16:16;;;;;;;8.00;3.90;;;7.30;98.70;;;;;;10492716;28;20127;-69
2021/12/04 07:21:17;;;;;;;8.00;3.58;;;7.30;98.70;;;;;;10479007;28;20390;-67
2021/12/04 07:26:19;;;;;;;7.82;3.63;;;7.30;98.70;;;;;;10467724;28;20431;-68
2021/12/04 07:31:19;;;;;;;5.88;3.33;;;7.30;98.70;;;;;;10491767;28;20364;-69
2021/12/04 07:36:22;;;;;;;8.90;4.10;;;7.30;98.70;;;;;;10479904;28;20033;-68
2021/12/04 07:41:22;;;;;;;5.38;3.42;;;7.30;98.70;;;;;;10487945;28;20036;-69
2021/12/04 07:46:23;;;;;;;7.72;3.25;;;7.40;98.70;;;;;;10488812;28;20053;-71
2021/12/04 07:51:24;;;;;;;6.22;3.60;;;7.40;98.70;;;;;;10479808;28;20037;-71
2021/12/04 07:56:25;;;;;;;6.63;3.83;;;7.30;98.70;;;;;;10491418;28;20036;-68
2021/12/04 08:01:26;;;;;;;6.22;3.40;;;7.30;98.70;;;;;;10477726;28;20013;-70
2021/12/04 08:06:27;;;;;;;7.25;3.35;;;7.30;98.70;;;;;;10471632;28;20075;-68
2021/12/04 08:11:28;;;;;;;7.65;3.60;;;7.30;98.70;;;;;;10490625;28;20140;-66
2021/12/04 08:16:32;;;;;;;7.40;3.67;;;7.30;98.70;;;;;;10490640;28;20024;-67
2021/12/04 08:21:34;;;;;;;9.82;4.15;;;7.50;98.80;;;;;;10490496;28;20025;-68
2021/12/04 08:26:38;;;;;;;8.40;4.30;;;7.30;98.70;;;;;;10483720;28;20450;-68
2021/12/04 08:31:38;;;;;;;6.78;3.40;;;7.30;98.70;;;;;;10491819;28;20025;-68
2021/12/04 08:36:39;;;;;;;6.78;4.03;;;7.30;98.70;;;;;;10478487;28;20482;-67
2021/12/04 08:41:40;;;;;;;9.05;4.53;;;7.30;98.70;;;;;;10480104;28;20261;-70
2021/12/04 08:46:41;;;;;;;9.50;4.80;;;7.40;98.90;;;;;;10451516;28;20048;-68
2021/12/04 08:51:42;;;;;;;9.63;4.55;;;7.60;98.80;;;;;;10474745;28;20057;-65
2021/12/04 08:56:43;;;;;;;8.23;4.03;;;7.40;98.80;;;;;;10476661;28;20190;-69
2021/12/04 09:01:44;;;;;;;8.05;4.50;;;7.40;98.80;;;;;;10488551;28;20032;-68
2021/12/04 09:06:45;;;;;;;9.88;4.10;;;7.40;98.80;;;;;;10476367;28;20076;-69
2021/12/04 09:11:52;;;;;;;9.30;4.45;;;7.40;98.80;;;;;;10457225;28;20115;-67
2021/12/04 09:16:55;;;;;;;13.38;5.03;;;7.30;98.80;;;;;;10465141;28;20376;-69
2021/12/04 09:21:57;;;;;;;14.70;4.85;;;7.30;98.90;;;;;;10486038;28;20031;-69
2021/12/04 09:27:31;;;;;;;10.40;4.85;;;7.40;99.00;;;;;;10474338;28;20609;-68
2021/12/04 10:15:22;;;;;;;16.42;6.97;;;7.50;99.10;;;;;;10428424;28;20041;-75
2021/12/04 10:36:03;;;;;;;14.85;5.97;;;7.30;99.50;;;;;;10472979;28;20063;-68
2021/12/04 10:41:04;;;;;;;13.88;5.97;;;7.40;99.60;;;;;;10474486;28;20029;-68
2021/12/04 10:46:15;;;;;;;12.07;6.15;;;7.40;99.40;;;;;;10482226;28;20052;-69
2021/12/04 10:51:29;;;;;;;15.95;6.55;;;7.40;99.40;;;;;;10474171;28;20468;-69
2021/12/04 10:56:58;;;;;;;14.13;6.85;;;7.40;99.40;;;;;;10453235;28;20028;-70
2021/12/04 11:22:59;;;;;;;;;;;7.50;99.40;;;;;;10467349;28;20311;-65
2021/12/04 11:38:26;;;;;;;;;;;7.50;99.40;;;;;;10454617;28;20542;-64
2021/12/04 11:43:46;;;;;;;13.90;6.30;;;7.50;99.60;;;;;;10478633;28;19915;-63
2021/12/04 11:48:48;;;;;;;20.77;6.60;;;7.50;99.30;;;;;;10474547;28;20077;-64
2021/12/04 11:53:51;;;;;;;16.30;5.90;;;7.50;99.30;;;;;;10459629;28;20020;-64
2021/12/04 11:58:53;;;;;;;13.60;5.65;;;7.50;99.40;;;;;;10491657;28;20107;-65
2021/12/04 12:03:56;;;;;;;16.77;7.10;;;7.50;99.50;;;;;;10488378;28;20033;-65
2021/12/04 12:09:19;;;;;;;15.50;5.80;;;7.60;99.50;;;;;;10452807;28;20025;-64
2021/12/04 12:14:24;;;;;;;14.50;6.60;;;7.50;99.50;;;;;;10453812;28;20334;-65
2021/12/04 12:19:40;;;;;;;13.40;5.45;;;7.60;99.50;;;;;;10458363;28;20029;-64
2021/12/04 12:40:59;;;;;;;15.63;6.03;;;7.50;99.40;;;;;;10496875;28;20024;-69
2021/12/04 12:46:00;;;;;;;13.55;5.65;;;7.60;99.60;;;;;;10491272;28;20087;-63
2021/12/04 12:51:07;;;;;;;13.02;5.88;;;7.60;99.60;;;;;;10491187;28;20112;-65
2021/12/04 12:56:12;;;;;;;12.73;6.30;;;7.60;99.60;;;;;;10489222;28;20032;-65
2021/12/04 13:12:22;;;;;;;12.65;5.95;;;7.60;99.60;;;;;;10488616;28;20915;-66
2021/12/04 13:17:28;;;;;;;21.63;7.38;;;7.60;99.60;;;;;;10489690;28;20043;-68
2021/12/04 13:22:31;;;;;;;20.02;8.43;;;7.90;99.70;;;;;;10492606;28;20123;-69
2021/12/04 13:32:42;;;;;;;22.90;8.20;;;7.30;99.90;;;;;;10471996;28;20542;-67
2021/12/04 13:37:44;;;;;;;19.60;8.73;;;7.20;99.90;;;;;;10479716;28;20406;-67
2021/12/04 13:42:47;;;;;;;14.75;7.18;;;7.50;99.90;;;;;;10455134;28;20039;-67
2021/12/04 13:47:56;;;;;;;15.20;7.88;;;7.30;99.90;;;;;;10463185;28;20049;-62
2021/12/04 13:53:02;;;;;;;;;;;7.40;99.90;;;;;;10450648;28;20186;-66
2021/12/04 13:58:04;;;;;;;18.02;7.32;;;7.40;99.90;;;;;;10459942;28;20294;-62
2021/12/04 14:03:05;;;;;;;15.90;7.60;;;7.40;99.90;;;;;;10454257;28;20036;-64
2021/12/04 14:08:07;;;;;;;18.67;6.95;;;7.50;99.90;;;;;;10454718;28;20037;-64
2021/12/04 14:13:09;;;;;;;19.50;8.18;;;7.50;99.80;;;;;;10449486;28;20029;-65
2021/12/04 14:18:16;;;;;;;15.68;7.63;;;7.50;99.80;;;;;;10451928;28;20102;-65
2021/12/04 14:23:17;;;;;;;15.68;7.20;;;7.50;99.80;;;;;;10454089;28;20024;-66
2021/12/04 14:28:19;;;;;;;18.25;7.90;;;7.50;99.80;;;;;;10452901;28;20517;-66
2021/12/04 14:33:24;;;;;;;18.00;8.50;;;7.50;99.80;;;;;;10452691;28;20025;-65
2021/12/04 14:38:27;;;;;;;18.25;7.25;;;7.50;99.70;;;;;;10468165;28;20031;-66
2021/12/04 14:43:32;;;;;;;17.55;7.28;;;7.50;99.70;;;;;;10473346;28;20485;-66
2021/12/04 14:48:39;;;;;;;14.95;7.05;;;7.60;99.70;;;;;;10472578;28;20081;-64
2021/12/04 14:53:51;;;;;;;18.20;7.55;;;7.60;99.70;;;;;;10483140;28;20024;-65
2021/12/04 14:58:52;;;;;;;15.43;6.43;;;7.60;99.70;;;;;;10483030;28;20387;-65
2021/12/04 15:03:58;;;;;;;18.30;7.55;;;7.60;99.70;;;;;;10468185;28;20037;-65
2021/12/04 15:09:03;;;;;;;20.83;8.43;;;7.60;99.70;;;;;;10483428;28;20101;-66
2021/12/04 15:14:09;;;;;;;15.73;6.88;;;7.60;99.70;;;;;;10491052;28;20019;-67
2021/12/04 15:19:12;;;;;;;12.23;7.07;;;7.60;99.70;;;;;;10462041;28;20017;-68
2021/12/04 15:24:24;;;;;;;15.52;7.10;;;7.60;99.70;;;;;;10480745;28;20036;-63
2021/12/04 15:29:31;;;;;;;14.00;6.00;;;7.60;99.70;;;;;;10479379;28;20493;-71
2021/12/04 15:34:41;;;;;;;14.23;6.82;;;7.60;99.70;;;;;;10488255;28;20048;-66
2021/12/04 15:39:47;;;;;;;11.73;5.70;;;7.70;99.70;;;;;;10482098;28;20040;-64
2021/12/04 15:45:01;;;;;;;11.80;5.70;;;7.70;99.70;;;;;;10489045;28;20461;-67
2021/12/04 15:55:20;;;;;;;9.82;5.38;;;7.70;99.80;;;;;;10489440;28;20036;-61
2021/12/04 16:00:23;;;;;;;12.65;6.13;;;7.60;99.80;;;;;;10474429;28;20050;-64
2021/12/04 16:05:27;;;;;;;11.55;5.88;;;7.80;99.90;;;;;;10477235;28;20066;-69
2021/12/04 16:10:28;;;;;;;11.13;5.43;;;7.60;99.90;;;;;;10489448;28;20158;-67
2021/12/04 16:15:29;;;;;;;10.27;5.68;;;7.60;99.90;;;;;;10488481;28;20355;-67
2021/12/04 16:20:31;;;;;;;11.82;5.93;;;7.60;99.90;;;;;;10488112;28;20074;-72
2021/12/04 16:25:38;;;;;;;9.50;5.18;;;7.60;99.90;;;;;;10487888;28;20031;-68
2021/12/04 16:30:52;;;;;;;7.43;4.78;;;7.60;99.90;;;;;;10489479;28;20497;-64
2021/12/04 16:40:58;;;;;;;10.85;5.63;;;7.70;99.90;;;;;;10486189;28;20036;-61
2021/12/04 16:46:20;;;;;;;9.25;4.85;;;7.70;99.90;;;;;;10483360;28;20060;-68
2021/12/04 16:56:46;;;;;;;8.48;4.68;;;7.70;99.90;;;;;;10486981;28;20497;-71
2021/12/04 17:01:50;;;;;;;12.60;5.03;;;8.00;99.90;;;;;;10455974;28;20112;-73
2021/12/04 17:06:54;;;;;;;8.63;4.57;;;8.10;99.80;;;;;;10453150;28;20040;-65
2021/12/04 17:11:56;;;;;;;11.55;5.22;;;8.10;99.90;;;;;;10478226;28;20028;-70
2021/12/04 17:16:59;;;;;;;6.93;4.35;;;8.10;99.90;;;;;;10487115;28;20025;-71
2021/12/04 17:22:00;;;;;;;7.95;4.15;;;8.00;99.90;;;;;;10486913;28;20017;-72
2021/12/04 17:27:03;;;;;;;7.55;4.22;;;8.00;99.90;;;;;;10484741;28;20036;-68
2021/12/04 17:32:04;;;;;;;7.80;4.60;;;8.00;99.90;;;;;;10503446;28;20031;-70
2021/12/04 17:37:05;;;;;;;7.57;4.07;;;8.00;99.90;;;;;;10483694;28;20127;-70
2021/12/04 17:42:06;;;;;;;7.25;4.13;;;8.00;99.90;;;;;;10463773;28;20021;-63
2021/12/04 17:47:09;;;;;;;7.50;4.05;;;7.90;99.90;;;;;;10450455;28;20483;-72
2021/12/04 17:52:10;;;;;;;7.35;3.97;;;7.90;99.90;;;;;;10462226;28;20051;-72
2021/12/04 17:57:11;;;;;;;9.93;4.05;;;7.90;99.90;;;;;;10462154;28;20078;-71
2021/12/04 18:02:15;;;;;;;10.45;4.22;;;7.90;99.90;;;;;;10467362;28;20024;-69
2021/12/04 18:07:20;;;;;;;13.60;4.63;;;8.00;99.90;;;;;;10462426;28;20048;-69
2021/12/04 18:12:28;;;;;;;13.68;4.75;;;8.00;99.90;;;;;;10480579;28;20020;-71
2021/12/04 18:17:30;;;;;;;11.13;4.30;;;8.10;99.90;;;;;;10476158;28;20513;-78
2021/12/04 18:22:30;;;;;;;25.00;5.35;;;8.30;99.90;;;;;;10476105;28;20017;-77
2021/12/04 18:27:34;;;;;;;15.80;4.22;;;8.40;99.90;;;;;;10448325;28;20048;-74
2021/12/04 18:32:35;;;;;;;13.95;4.75;;;8.50;99.90;;;;;;10445178;28;20551;-69
2021/12/04 18:37:36;;;;;;;16.15;4.78;;;8.60;99.90;;;;;;10450512;28;20039;-66
2021/12/04 18:42:37;;;;;;;25.05;4.95;;;8.50;99.90;;;;;;10449825;28;20033;-67
2021/12/04 18:47:38;;;;;;;9.27;4.00;;;8.50;99.90;;;;;;10454407;28;20044;-70
2021/12/04 18:52:40;;;;;;;10.15;4.00;;;8.40;99.90;;;;;;10446787;28;20124;-70
2021/12/04 18:57:42;;;;;;;10.93;4.13;;;8.30;99.90;;;;;;10470771;28;20107;-68
2021/12/04 19:02:48;;;;;;;12.25;3.70;;;8.30;99.90;;;;;;10475095;28;20052;-72
2021/12/04 19:07:50;;;;;;;12.35;3.80;;;8.30;99.90;;;;;;10461739;28;20553;-68
2021/12/04 19:12:51;;;;;;;11.68;3.80;;;8.20;99.90;;;;;;10471495;28;20578;-70
2021/12/04 19:17:55;;;;;;;11.40;3.72;;;8.20;99.90;;;;;;10452297;28;20040;-66
2021/12/04 19:22:56;;;;;;;10.05;3.60;;;8.10;99.90;;;;;;10462124;28;20491;-69
2021/12/04 19:27:58;;;;;;;11.82;3.63;;;8.10;99.90;;;;;;10470662;28;20041;-71
2021/12/04 19:54:15;;;;;;;9.48;3.38;;;8.00;99.90;;;;;;10484716;28;20035;-70
2021/12/04 19:59:19;;;;;;;;;;;8.00;99.90;;;;;;10485761;28;20032;-71
2021/12/04 20:14:32;;;;;;;8.25;3.47;;;8.00;99.90;;;;;;10487643;28;20017;-72
2021/12/04 20:19:33;;;;;;;9.60;3.80;;;7.90;99.90;;;;;;10485832;28;20020;-73
2021/12/04 20:24:40;;;;;;;9.52;3.45;;;7.90;99.90;;;;;;10470351;28;20032;-68
2021/12/04 21:07:28;;;;;;;10.63;4.10;;;7.80;99.90;;;;;;10461087;28;20422;-71
2021/12/04 21:49:59;;;;;;;11.90;3.90;;;7.70;99.90;;;;;;10457393;28;20049;-67
2021/12/04 21:55:08;;;;;;;8.40;3.60;;;7.70;99.90;;;;;;10462272;28;20021;-70
2021/12/04 22:10:54;;;;;;;5.45;3.35;;;7.70;99.90;;;;;;10486995;28;20065;-68
2021/12/04 22:26:57;;;;;;;5.68;3.15;;;7.60;99.90;;;;;;10464603;28;20072;-68
2021/12/04 22:58:28;;;;;;;5.13;2.63;;;7.60;99.90;;;;;;10490661;28;20485;-72
2021/12/04 23:14:18;;;;;;;6.40;2.53;;;7.60;99.80;;;;;;10486654;28;20031;-71
